createdAt,value
2023-01-13T00:00:48.193Z,9.53
2023-01-13T00:03:52.225Z,9.75
2023-01-13T00:06:56.161Z,9.86
2023-01-13T00:10:00.233Z,9.67
2023-01-13T00:13:04.110Z,9.71
2023-01-13T00:16:08.003Z,9.74
2023-01-13T00:19:11.779Z,9.72
2023-01-13T00:22:15.944Z,9.61
2023-01-13T00:25:19.983Z,9.58
2023-01-13T00:28:23.704Z,9.68
2023-01-13T00:31:27.774Z,9.31
2023-01-13T00:34:31.786Z,9.39
2023-01-13T00:37:35.846Z,9.18
2023-01-13T00:40:39.797Z,9.49
2023-01-13T00:43:43.789Z,9.41
2023-01-13T00:46:47.771Z,9.55
2023-01-13T00:49:51.701Z,9.88
2023-01-13T00:52:55.625Z,9.91
2023-01-13T00:55:59.563Z,10.01
2023-01-13T00:59:03.285Z,10.05
2023-01-13T01:02:07.411Z,9.68
2023-01-13T01:05:11.289Z,9.58
2023-01-13T01:08:15.233Z,9.85
2023-01-13T01:11:19.333Z,10.10
2023-01-13T01:14:23.157Z,10.08
2023-01-13T01:17:27.292Z,9.92
2023-01-13T01:20:31.158Z,10.10
2023-01-13T01:23:35.080Z,10.05
2023-01-13T01:26:39.122Z,10.20
2023-01-13T01:29:43.075Z,10.38
2023-01-13T01:32:47.018Z,10.13
2023-01-13T01:35:50.823Z,9.80
2023-01-13T01:38:54.737Z,9.94
2023-01-13T01:41:58.842Z,10.27
2023-01-13T01:45:02.887Z,10.13
2023-01-13T01:48:06.762Z,10.18
2023-01-13T01:51:10.661Z,10.12
2023-01-13T01:54:14.769Z,10.15
2023-01-13T01:57:19.019Z,10.15
2023-01-13T02:00:23.175Z,10.26
2023-01-13T02:03:27.020Z,10.28
2023-01-13T02:06:30.955Z,10.38
2023-01-13T02:09:35.078Z,10.46
2023-01-13T02:12:39.124Z,10.27
2023-01-13T02:15:43.010Z,10.10
2023-01-13T02:18:46.985Z,10.28
2023-01-13T02:21:50.982Z,10.29
2023-01-13T02:24:55.034Z,10.16
2023-01-13T02:27:58.940Z,10.08
2023-01-13T02:31:02.764Z,10.12
2023-01-13T02:34:06.747Z,10.15
2023-01-13T02:37:10.648Z,10.20
2023-01-13T02:40:14.725Z,10.09
2023-01-13T02:43:18.673Z,10.37
2023-01-13T02:46:22.834Z,10.35
2023-01-13T02:49:26.933Z,10.54
2023-01-13T02:52:30.984Z,10.40
2023-01-13T02:55:34.963Z,10.30
2023-01-13T02:58:38.812Z,10.35
2023-01-13T03:01:43.172Z,10.49
2023-01-13T03:04:47.138Z,10.46
2023-01-13T03:07:51.140Z,10.15
2023-01-13T03:10:55.040Z,10.52
2023-01-13T03:13:58.899Z,10.62
2023-01-13T03:17:02.828Z,10.65
2023-01-13T03:20:06.902Z,10.82
2023-01-13T03:23:10.715Z,10.81
2023-01-13T03:26:14.459Z,10.69
2023-01-13T03:29:20.390Z,10.32
2023-01-13T03:32:24.553Z,10.18
2023-01-13T03:35:28.869Z,10.38
2023-01-13T03:38:32.829Z,10.28
2023-01-13T03:41:37.027Z,10.24
2023-01-13T03:44:40.915Z,10.49
2023-01-13T03:47:44.911Z,10.36
2023-01-13T03:50:48.716Z,10.14
2023-01-13T03:53:52.622Z,10.10
2023-01-13T03:56:56.447Z,9.64
2023-01-13T04:00:00.511Z,9.59
2023-01-13T04:03:04.547Z,9.61
2023-01-13T04:06:08.585Z,9.95
2023-01-13T04:09:12.491Z,10.05
2023-01-13T04:12:16.282Z,10.17
2023-01-13T04:15:20.276Z,10.37
2023-01-13T04:18:24.279Z,10.54
2023-01-13T04:21:28.224Z,10.69
2023-01-13T04:24:32.340Z,10.66
2023-01-13T04:27:36.673Z,10.30
2023-01-13T04:30:40.647Z,10.38
2023-01-13T04:33:44.517Z,10.40
2023-01-13T04:36:48.470Z,9.66
2023-01-13T04:39:52.453Z,9.43
2023-01-13T04:42:56.705Z,9.36
2023-01-13T04:46:00.538Z,9.45
2023-01-13T04:49:04.535Z,9.30
2023-01-13T04:52:08.332Z,9.27
2023-01-13T04:55:12.179Z,8.84
2023-01-13T04:58:16.060Z,9.15
2023-01-13T05:01:20.053Z,9.13
2023-01-13T05:04:23.773Z,9.11
2023-01-13T05:07:27.767Z,9.32
2023-01-13T05:10:32.113Z,9.34
2023-01-13T05:13:35.874Z,9.45
2023-01-13T05:16:39.798Z,9.43
2023-01-13T05:19:43.912Z,9.25
2023-01-13T05:22:48.172Z,9.04
2023-01-13T05:25:52.378Z,9.03
2023-01-13T05:28:56.371Z,9.01
2023-01-13T05:32:00.206Z,9.21
2023-01-13T05:35:04.454Z,9.21
2023-01-13T05:38:08.689Z,9.04
2023-01-13T05:41:12.593Z,9.19
2023-01-13T05:44:16.479Z,9.16
2023-01-13T05:47:20.525Z,8.86
2023-01-13T05:50:24.555Z,8.99
2023-01-13T05:53:28.886Z,9.14
2023-01-13T05:56:33.105Z,8.58
2023-01-13T05:59:36.712Z,8.64
2023-01-13T06:02:40.767Z,8.85
2023-01-13T06:05:44.693Z,8.96
2023-01-13T06:08:48.907Z,8.58
2023-01-13T06:11:52.744Z,8.86
2023-01-13T06:14:56.766Z,8.69
2023-01-13T06:18:00.658Z,8.59
2023-01-13T06:21:04.637Z,8.58
2023-01-13T06:24:08.585Z,8.93
2023-01-13T06:27:12.298Z,8.68
2023-01-13T06:30:16.171Z,9.01
2023-01-13T06:33:20.255Z,9.04
2023-01-13T06:36:24.073Z,9.09
2023-01-13T06:39:27.944Z,9.05
2023-01-13T06:42:32.180Z,9.17
2023-01-13T06:45:36.221Z,8.63
2023-01-13T06:48:40.247Z,8.92
2023-01-13T06:51:44.135Z,8.69
2023-01-13T06:54:48.182Z,8.47
2023-01-13T06:57:52.974Z,8.68
2023-01-13T07:00:57.346Z,8.74
2023-01-13T07:04:03.537Z,8.84
2023-01-13T07:07:09.025Z,8.81
2023-01-13T07:10:15.489Z,8.82
2023-01-13T07:13:20.558Z,8.82
2023-01-13T07:16:27.178Z,8.77
2023-01-13T07:19:31.105Z,8.50
2023-01-13T07:22:35.370Z,8.86
2023-01-13T07:25:40.463Z,8.65
2023-01-13T07:28:44.715Z,8.60
2023-01-13T07:31:50.135Z,8.80
2023-01-13T07:34:54.435Z,8.63
2023-01-13T07:37:58.484Z,8.80
2023-01-13T07:41:02.899Z,8.66
2023-01-13T07:44:07.430Z,8.76
2023-01-13T07:47:11.567Z,8.97
2023-01-13T07:50:15.357Z,8.76
2023-01-13T07:53:19.693Z,8.45
2023-01-13T07:56:23.607Z,8.85
2023-01-13T07:59:43.059Z,9.16
2023-01-13T08:02:46.909Z,9.23
2023-01-13T08:05:51.272Z,9.34
2023-01-13T08:08:55.175Z,9.24
2023-01-13T08:12:01.276Z,9.52
2023-01-13T08:15:05.502Z,9.29
2023-01-13T08:18:09.470Z,9.07
2023-01-13T08:21:13.158Z,9.48
2023-01-13T08:24:17.421Z,9.55
2023-01-13T08:27:24.533Z,9.45
2023-01-13T08:30:28.523Z,9.37
2023-01-13T08:33:32.322Z,9.27
2023-01-13T08:36:37.432Z,9.13
2023-01-13T08:39:41.399Z,9.23
2023-01-13T08:42:48.374Z,9.11
2023-01-13T08:45:53.744Z,9.09
2023-01-13T08:48:57.469Z,8.83
2023-01-13T08:52:01.246Z,8.86
2023-01-13T08:55:05.154Z,8.81
2023-01-13T08:58:15.674Z,9.13
2023-01-13T09:01:20.424Z,9.29
2023-01-13T09:04:24.455Z,9.12
2023-01-13T09:07:28.484Z,9.29
2023-01-13T09:10:32.275Z,9.22
2023-01-13T09:13:36.339Z,9.26
2023-01-13T09:16:41.456Z,9.00
2023-01-13T09:19:45.541Z,9.24
2023-01-13T09:22:49.342Z,9.25
2023-01-13T09:25:53.074Z,9.16
2023-01-13T09:28:57.451Z,9.50
2023-01-13T09:32:01.958Z,9.65
2023-01-13T09:35:05.908Z,10.03
2023-01-13T09:38:10.007Z,9.88
2023-01-13T09:41:13.761Z,10.04
2023-01-13T09:44:17.673Z,10.18
2023-01-13T09:47:21.627Z,10.46
2023-01-13T09:50:27.410Z,10.06
2023-01-13T09:53:31.547Z,10.08
2023-01-13T09:56:35.367Z,10.08
2023-01-13T09:59:40.584Z,10.01
2023-01-13T10:02:44.688Z,10.09
2023-01-13T10:05:48.857Z,10.23
2023-01-13T10:08:52.951Z,10.36
2023-01-13T10:11:56.740Z,10.63
2023-01-13T10:15:00.522Z,10.61
2023-01-13T10:18:04.610Z,10.28
2023-01-13T10:21:08.330Z,10.47
2023-01-13T10:24:12.238Z,10.79
2023-01-13T10:27:16.368Z,10.66
2023-01-13T10:30:20.656Z,10.67
2023-01-13T10:33:27.590Z,10.57
2023-01-13T10:36:32.425Z,10.27
2023-01-13T10:39:36.529Z,10.23
2023-01-13T10:42:40.182Z,10.30
2023-01-13T10:45:44.535Z,10.20
2023-01-13T10:48:48.606Z,10.22
2023-01-13T10:51:52.260Z,10.68
2023-01-13T10:54:56.281Z,11.18
2023-01-13T10:58:00.074Z,11.21
2023-01-13T11:01:05.204Z,11.10
2023-01-13T11:04:09.338Z,10.88
2023-01-13T11:07:13.296Z,10.61
2023-01-13T11:10:16.983Z,10.90
2023-01-13T11:13:20.831Z,10.93
2023-01-13T11:16:24.886Z,11.00
2023-01-13T11:19:28.850Z,11.16
2023-01-13T11:22:33.763Z,11.28
2023-01-13T11:25:37.876Z,11.45
2023-01-13T11:28:41.995Z,11.23
2023-01-13T11:31:45.968Z,11.31
2023-01-13T11:35:16.346Z,11.43
2023-01-13T11:38:20.591Z,11.56
2023-01-13T11:41:24.514Z,11.58
2023-01-13T11:44:28.640Z,11.34
2023-01-13T11:47:32.519Z,11.51
2023-01-13T11:50:36.307Z,11.50
2023-01-13T11:53:40.201Z,11.50
2023-01-13T11:56:46.565Z,12.12
2023-01-13T11:59:50.757Z,12.07
2023-01-13T12:02:54.543Z,12.00
2023-01-13T12:05:58.762Z,12.05
2023-01-13T12:09:02.723Z,12.16
2023-01-13T12:12:06.874Z,12.17
2023-01-13T12:15:10.842Z,12.16
2023-01-13T12:18:14.555Z,11.90
2023-01-13T12:21:18.690Z,12.07
2023-01-13T12:24:22.455Z,12.18
2023-01-13T12:27:26.853Z,12.15
2023-01-13T12:30:30.962Z,12.08
2023-01-13T12:33:34.599Z,11.88
2023-01-13T12:36:38.513Z,11.78
2023-01-13T12:39:42.425Z,11.68
2023-01-13T12:42:46.819Z,11.57
2023-01-13T12:45:50.627Z,11.32
2023-01-13T12:48:54.755Z,11.99
2023-01-13T12:51:58.632Z,12.36
2023-01-13T12:55:03.376Z,13.04
2023-01-13T12:58:07.187Z,12.66
2023-01-13T13:01:11.205Z,12.77
2023-01-13T13:04:17.356Z,12.86
2023-01-13T13:07:21.480Z,12.91
2023-01-13T13:10:25.400Z,13.15
2023-01-13T13:13:29.196Z,13.11
2023-01-13T13:16:33.242Z,13.25
2023-01-13T13:19:37.186Z,12.91
2023-01-13T13:22:41.320Z,12.78
2023-01-13T13:25:46.416Z,13.02
2023-01-13T13:28:50.571Z,12.64
2023-01-13T13:31:54.408Z,13.02
2023-01-13T13:35:01.687Z,13.20
2023-01-13T13:38:05.759Z,13.35
2023-01-13T13:41:10.268Z,13.38
2023-01-13T13:44:14.211Z,12.95
2023-01-13T13:47:18.621Z,13.12
2023-01-13T13:50:22.567Z,13.27
2023-01-13T13:53:27.259Z,13.00
2023-01-13T13:56:32.899Z,12.93
2023-01-13T13:59:37.220Z,12.70
2023-01-13T14:02:41.178Z,12.76
2023-01-13T14:05:45.111Z,12.74
2023-01-13T14:08:49.078Z,12.62
2023-01-13T14:11:53.132Z,12.71
2023-01-13T14:14:57.057Z,12.58
2023-01-13T14:18:09.456Z,12.72
2023-01-13T14:21:14.237Z,12.59
2023-01-13T14:24:19.605Z,12.23
2023-01-13T14:35:52.476Z,12.37
2023-01-13T14:38:57.363Z,12.90
2023-01-13T14:42:01.856Z,13.04
2023-01-13T14:45:07.125Z,12.77
2023-01-13T14:48:12.329Z,12.75
2023-01-13T14:51:15.896Z,12.56
2023-01-13T15:15:13.096Z,11.46
2023-01-13T15:21:57.171Z,11.37
2023-01-13T15:28:42.718Z,11.60
2023-01-13T15:32:38.018Z,11.95
2023-01-13T15:54:06.761Z,11.36
2023-01-13T15:56:06.870Z,11.16
2023-01-13T15:59:12.843Z,11.06
2023-01-13T16:09:17.191Z,11.37
2023-01-13T16:12:25.831Z,11.20
2023-01-13T16:19:05.584Z,11.32
2023-01-13T16:25:34.653Z,11.46
2023-01-13T16:39:25.219Z,11.50
2023-01-13T16:47:58.135Z,11.73
2023-01-13T16:57:40.846Z,11.19
2023-01-13T17:07:18.168Z,10.66
2023-01-13T17:14:00.944Z,11.02
2023-01-13T17:17:28.654Z,11.22
2023-01-13T17:20:36.741Z,11.40
2023-01-13T17:23:42.205Z,11.27
2023-01-13T17:28:25.352Z,11.10
2023-01-13T17:30:41.085Z,10.98
2023-01-13T17:33:48.188Z,10.73
2023-01-13T17:37:07.293Z,10.80
2023-01-13T17:43:43.876Z,10.55
2023-01-13T17:46:48.157Z,10.99
2023-01-13T17:50:17.364Z,10.89
2023-01-13T17:53:25.120Z,10.74
2023-01-13T17:56:36.183Z,10.88
2023-01-13T18:00:00.124Z,10.82
2023-01-13T18:03:11.080Z,10.65
2023-01-13T18:09:43.414Z,10.94
2023-01-13T18:13:08.050Z,10.99
2023-01-13T18:19:52.716Z,10.59
2023-01-13T18:23:02.493Z,10.64
2023-01-13T18:26:09.100Z,10.52
2023-01-13T18:29:18.605Z,10.56
2023-01-13T18:36:30.743Z,10.67
2023-01-13T18:39:25.268Z,10.64
2023-01-13T18:42:53.417Z,10.68
2023-01-13T18:46:33.131Z,10.81
2023-01-13T18:49:40.504Z,11.17
2023-01-13T18:57:11.616Z,10.73
2023-01-13T19:31:10.976Z,11.53
2023-01-13T19:38:30.776Z,11.00
2023-01-13T19:48:33.291Z,9.84
2023-01-13T19:51:39.127Z,9.85
2023-01-13T19:54:50.294Z,10.07
2023-01-13T19:58:07.810Z,10.61
2023-01-13T20:01:28.182Z,10.82
2023-01-13T20:12:06.913Z,9.71
2023-01-13T20:29:36.210Z,9.97
2023-01-13T20:32:41.126Z,10.03
2023-01-13T20:35:46.508Z,10.16
2023-01-13T20:38:55.345Z,10.03
2023-01-13T20:42:05.705Z,10.44
2023-01-13T20:45:11.271Z,10.32
2023-01-13T20:48:18.536Z,10.63
2023-01-13T20:51:33.424Z,10.23
2023-01-13T20:54:49.338Z,10.39
2023-01-13T20:57:54.620Z,10.21
2023-01-13T21:01:00.296Z,10.30
2023-01-13T21:04:05.848Z,10.69
2023-01-13T21:07:14.306Z,10.45
2023-01-13T21:10:20.084Z,10.69
2023-01-13T21:13:36.658Z,10.79
2023-01-13T21:16:55.426Z,10.97
2023-01-13T21:20:06.853Z,10.92
2023-01-13T21:24:01.813Z,10.68
2023-01-13T21:26:39.297Z,10.52
2023-01-13T21:29:44.065Z,9.99
2023-01-13T21:32:50.095Z,9.85
2023-01-13T21:41:02.900Z,10.02
2023-01-13T21:42:57.066Z,10.25
2023-01-13T21:46:12.875Z,10.53
2023-01-13T21:49:30.970Z,10.81
2023-01-13T21:52:43.765Z,10.37
2023-01-13T21:55:58.377Z,10.49
2023-01-13T22:02:26.730Z,10.26
2023-01-13T22:05:42.370Z,10.20
2023-01-13T22:08:47.654Z,10.18
2023-01-13T22:12:39.765Z,10.27
2023-01-13T22:15:31.745Z,10.42
2023-01-13T22:19:28.354Z,10.09
2023-01-13T22:22:10.193Z,10.17
2023-01-13T22:25:26.408Z,10.25
2023-01-13T22:28:35.264Z,10.16
2023-01-13T22:31:49.871Z,10.28
2023-01-13T22:38:47.244Z,10.26
2023-01-13T22:41:59.339Z,10.31
2023-01-13T22:49:58.975Z,10.18
2023-01-13T22:51:56.712Z,10.19
2023-01-13T22:55:03.211Z,9.91
2023-01-13T22:58:23.564Z,9.88
2023-01-13T23:01:32.030Z,9.79
2023-01-13T23:04:41.527Z,9.95
2023-01-13T23:07:54.517Z,9.27
2023-01-13T23:11:28.449Z,9.23
2023-01-13T23:21:23.498Z,9.84
2023-01-13T23:31:30.636Z,9.04
2023-01-13T23:34:35.980Z,9.31
2023-01-13T23:37:41.816Z,9.30
2023-01-13T23:40:52.489Z,9.50
2023-01-13T23:44:11.798Z,9.36
2023-01-13T23:47:16.107Z,9.14
2023-01-13T23:50:21.864Z,9.09
2023-01-13T23:53:32.545Z,8.88
2023-01-13T23:56:52.784Z,9.18
2023-01-13T23:59:57.261Z,9.21
